Reservoir, Mississippi
Current Conditions -  °F | °C
As of 1:54 PM on Saturday 20 Dec 2014 (Local Time) from KJAN Reporting Station
Few Clouds Few Clouds  
Wind Chill: 13°   Ceiling: Unl
Heat Index: 13°   Visibility: 10mi
Dew Point:   Wind: 12mph
Humidity: 60%   Direction: 360°N
Pressure: 30.16"   Gusts: NA
Location:  32.2729°N, 89.9857°W
Report Text: KJAN 201954Z 36010KT 10SM FEW025 13/06 A3016 RMK AO2 SLP213 T01330056
Loading
Personal Weather Stations






























Interactive Weather Map New forecast layout! Learn more

10-Day Weather Forecast

Advertisements
Track Severe Weather on mobile